Strona główna
METAR-TAF:

METAR-TAF

Lotnisko :

Port lotniczy Makasar-Sultan Hasanuddin

Makasar, Celebes Południowy, Indonezja

Szerokość geograficzna: 05-04S, Długość geograficzna: 119-33E, wysokość: 14 m

Aktualna obserwacja pogody

Raport powstał 43 minut temu, godzina 07:30 UTC
Wiatr 1 kt od południowy zachód
Temperatura 31°C
Wilgotność 66%
Ciśnienie 1008 hPa
Widzialność 10 km lub więcej
Rozproszone chmury na wysokości 1900 ft

METAR: WAAA 040730Z 22001KT 9999 SCT019 31/24 Q1008 NOSIG

czas: 15:13 (08:13 UTC)

Prognoza

Raport powstał 3 godziny i 13 minut temu, godzina 05:00 UTC
Prognoza ważna od 04 godzina 06 UTC do 05 godzina 12 UTC
Wiatr 10 kt od północny zachód
Widzialność 10 km lub więcej
Rozproszone chmury na wysokości 1900 ft
Stopniowe zmiany
od 04 godzina 10 UTC do 04 godzina 12 UTC
Wiatr 4 kt od wschodnio-południowy wschód
Widzialność: 8000 m

TAF: WAAA 040500Z 0406/0512 31010KT 9999 SCT019 BECMG 0410/0412 11004KT 8000

Obserwacja i prognoza pogody dla ponad 4000 lotnisk (raport METAR i TAF).

Dostępne stacje oznaczono żółtymi i czerwonymi punktami na mapie.

Najedź kursorem aby zobaczyć nazwę stacji.

Kliknij aby zobaczyć obserwacje i prognozy pogody.

Aby zmienić mapę: kliknij na zielony przycisk z czarnym krzyżykiem, aby powiększyć; na zielony przycisk z myślnikiem, aby pomniejszyć; na zielone strzałki, aby przejść do map sąsiednich.


METAR-TAF: